Time;durP1;ratioP1;P1;durP2;ratioP2;P2;SDS_P1;SDS_P2;PMS_P1;PMS_P2;Temp;Humidity;BMP_temperature;BMP_pressure;BME280_temperature;BME280_humidity;BME280_pressure;Samples;Min_cycle;Max_cycle;Signal;HPM_P1;HPM_P2
2023/11/22 00:00:40;;;;;;;1.10;0.70;;;;;;;6.65;54.55;92021.75;4959161;29;20070;-79
2023/11/22 00:03:06;;;;;;;0.50;0.50;;;;;;;6.64;54.71;92023.56;4960474;29;20035;-79
2023/11/22 00:05:32;;;;;;;0.60;0.60;;;;;;;6.65;54.59;92016.53;4960067;29;20095;-78
2023/11/22 00:07:57;;;;;;;0.60;0.60;;;;;;;6.68;54.58;92014.16;4960440;29;20055;-80
2023/11/22 00:10:23;;;;;;;0.80;0.80;;;;;;;6.75;54.28;92010.47;4959229;29;20495;-79
2023/11/22 00:12:49;;;;;;;0.70;0.70;;;;;;;6.82;54.01;92019.53;4961182;29;20073;-80
2023/11/22 00:15:18;;;;;;;0.70;0.70;;;;;;;6.82;54.03;92013.53;4959822;29;20051;-79
2023/11/22 00:17:44;;;;;;;0.60;0.60;;;;;;;6.89;54.46;92016.59;4943804;29;20046;-78
2023/11/22 00:20:11;;;;;;;0.60;0.60;;;;;;;6.82;54.20;92013.53;4959557;29;20036;-80
2023/11/22 00:22:36;;;;;;;0.60;0.60;;;;;;;6.74;54.86;92012.31;4960086;29;20035;-79
2023/11/22 00:25:03;;;;;;;0.50;0.50;;;;;;;6.70;55.28;92008.69;4959122;29;20454;-79
2023/11/22 00:27:29;;;;;;;0.80;0.80;;;;;;;6.64;55.64;92004.56;4959205;29;20042;-79
2023/11/22 00:29:55;;;;;;;0.63;0.63;;;;;;;6.61;55.99;92012.94;4943577;29;20504;-79
2023/11/22 00:32:22;;;;;;;0.50;0.50;;;;;;;6.67;55.77;92017.06;4941576;29;20035;-79
2023/11/22 00:34:48;;;;;;;0.60;0.60;;;;;;;6.67;55.47;92019.66;4959575;29;20043;-80
2023/11/22 00:37:13;;;;;;;0.52;0.52;;;;;;;6.65;55.81;92019.16;4942206;29;20031;-79
2023/11/22 00:39:39;;;;;;;0.70;0.70;;;;;;;6.70;55.99;92011.28;4942049;29;20043;-79
2023/11/22 00:42:05;;;;;;;0.60;0.60;;;;;;;6.71;55.59;92015.47;4942901;29;20023;-79
2023/11/22 00:44:31;;;;;;;0.40;0.40;;;;;;;6.67;56.19;92017.81;4942782;29;20081;-78
2023/11/22 00:46:57;;;;;;;0.50;0.50;;;;;;;6.73;55.91;92015.94;4959492;29;20062;-80
2023/11/22 00:49:23;;;;;;;0.50;0.50;;;;;;;6.67;55.66;92019.66;4942193;28;20275;-79
2023/11/22 00:51:50;;;;;;;0.60;0.60;;;;;;;6.87;54.04;92014.28;4959304;29;20042;-79
2023/11/22 00:54:16;;;;;;;0.60;0.60;;;;;;;6.96;54.17;92018.84;4960248;29;20309;-78
2023/11/22 00:56:42;;;;;;;0.60;0.60;;;;;;;6.81;55.24;92027.59;4960081;29;20325;-79
2023/11/22 00:59:08;;;;;;;0.50;0.50;;;;;;;6.84;55.23;92025.22;4941705;29;20534;-80
2023/11/22 01:01:34;;;;;;;0.57;0.57;;;;;;;6.81;55.24;92025.00;4959448;29;20042;-79
2023/11/22 01:04:00;;;;;;;0.50;0.50;;;;;;;6.80;55.46;92024.22;4959340;29;20059;-79
2023/11/22 01:06:25;;;;;;;0.40;0.40;;;;;;;6.76;55.89;92018.00;4942771;29;20035;-79
2023/11/22 01:08:51;;;;;;;0.43;0.43;;;;;;;6.79;55.51;92014.09;4941051;29;20094;-78
2023/11/22 01:11:16;;;;;;;0.68;0.52;;;;;;;6.81;55.85;92023.16;4958571;29;20517;-78
2023/11/22 01:13:43;;;;;;;0.50;0.50;;;;;;;6.80;56.36;92015.63;4941877;29;20035;-79
2023/11/22 01:16:13;;;;;;;0.50;0.50;;;;;;;6.72;56.97;92018.84;4941338;29;20499;-78
2023/11/22 01:18:39;;;;;;;0.50;0.50;;;;;;;6.65;57.07;92019.16;4940986;29;20487;-79
2023/11/22 01:21:05;;;;;;;0.75;0.60;;;;;;;6.70;57.21;92021.69;4940755;29;20035;-79
2023/11/22 01:23:31;;;;;;;0.50;0.50;;;;;;;6.89;56.82;92019.22;4958057;29;20499;-79
2023/11/22 01:25:58;;;;;;;0.30;0.30;;;;;;;7.00;55.47;92012.06;4958396;29;20031;-78
2023/11/22 01:28:24;;;;;;;0.50;0.50;;;;;;;7.05;54.21;92009.44;4925518;29;20063;-77
2023/11/22 01:30:50;;;;;;;0.50;0.50;;;;;;;7.03;54.90;92008.94;4958452;29;20087;-78
2023/11/22 01:33:16;;;;;;;0.52;0.52;;;;;;;6.99;55.23;92029.50;4958805;29;20506;-79
2023/11/22 01:35:41;;;;;;;0.43;0.43;;;;;;;6.99;55.30;92028.75;4958383;29;20038;-79
2023/11/22 01:38:07;;;;;;;0.40;0.40;;;;;;;7.02;56.22;92015.16;4958389;28;20503;-79
2023/11/22 01:40:34;;;;;;;0.50;0.50;;;;;;;6.93;55.82;92017.59;4940679;29;20483;-78
2023/11/22 01:42:59;;;;;;;0.73;0.60;;;;;;;6.96;56.19;92011.84;4940174;29;20138;-79
2023/11/22 01:45:26;;;;;;;0.47;0.47;;;;;;;6.93;56.55;92019.41;4940718;29;20083;-79
2023/11/22 01:47:52;;;;;;;0.60;0.60;;;;;;;6.94;56.30;92024.34;4939248;29;20047;-78
2023/11/22 01:50:19;;;;;;;0.55;0.55;;;;;;;6.91;56.68;92018.91;4940053;29;20041;-79
2023/11/22 01:52:45;;;;;;;1.75;0.55;;;;;;;6.89;56.32;92014.00;4939647;29;20066;-78
2023/11/22 01:55:13;;;;;;;0.40;0.40;;;;;;;6.88;56.57;92009.84;4941519;29;20042;-80
2023/11/22 01:57:39;;;;;;;0.43;0.43;;;;;;;6.80;56.63;92008.63;4956924;28;20039;-79
2023/11/22 02:00:14;;;;;;;0.40;0.40;;;;;;;6.81;56.57;92017.97;4939555;29;20037;-79
2023/11/22 02:02:42;;;;;;;0.45;0.45;;;;;;;7.01;54.96;91998.00;4939188;29;20058;-79
2023/11/22 02:05:08;;;;;;;0.40;0.40;;;;;;;6.97;55.11;92018.59;4940927;29;20035;-79
2023/11/22 02:07:34;;;;;;;0.47;0.47;;;;;;;6.96;55.23;91995.44;4956248;28;20035;-78
2023/11/22 02:10:00;;;;;;;0.40;0.40;;;;;;;6.95;55.68;92002.47;4940565;29;20046;-78
2023/11/22 02:12:25;;;;;;;0.40;0.40;;;;;;;6.90;55.66;92010.34;4957851;29;20039;-78
2023/11/22 02:14:51;;;;;;;0.40;0.40;;;;;;;7.00;55.76;92002.44;4940600;29;20272;-79
2023/11/22 02:17:17;;;;;;;0.40;0.40;;;;;;;6.97;56.23;91999.59;4939769;29;20043;-78
2023/11/22 02:19:43;;;;;;;0.50;0.50;;;;;;;6.88;56.69;92009.84;4939667;29;20072;-79
2023/11/22 02:22:12;;;;;;;0.52;0.52;;;;;;;6.81;56.58;92004.94;4939567;29;20411;-79
2023/11/22 02:24:38;;;;;;;0.63;0.60;;;;;;;6.73;57.50;92008.13;4956995;29;20087;-78
2023/11/22 02:27:04;;;;;;;0.43;0.43;;;;;;;7.07;54.50;91995.09;4958067;28;20082;-78
2023/11/22 02:29:29;;;;;;;0.50;0.50;;;;;;;7.00;56.19;91989.44;4939095;29;20031;-79
2023/11/22 02:31:55;;;;;;;0.60;0.60;;;;;;;6.94;55.98;91992.38;4956764;29;20241;-79
2023/11/22 02:34:21;;;;;;;0.50;0.50;;;;;;;6.87;55.72;91993.44;4955900;29;20035;-78
2023/11/22 02:36:47;;;;;;;0.47;0.47;;;;;;;6.88;56.24;91991.63;4939359;28;20177;-79
2023/11/22 02:39:14;;;;;;;0.45;0.45;;;;;;;6.88;55.87;91989.78;4956432;29;20599;-79
2023/11/22 02:41:39;;;;;;;0.57;0.57;;;;;;;6.81;56.35;91996.38;4941109;29;20043;-78
2023/11/22 02:44:06;;;;;;;0.55;0.55;;;;;;;6.75;55.66;91987.81;4939129;29;20045;-78
2023/11/22 02:46:32;;;;;;;0.75;0.52;;;;;;;6.70;55.70;91995.69;4937880;29;20055;-78
2023/11/22 02:48:59;;;;;;;0.60;0.50;;;;;;;6.61;55.99;91997.31;4955465;29;20027;-79
2023/11/22 02:51:25;;;;;;;0.57;0.57;;;;;;;6.52;57.16;91984.13;4957053;29;20053;-79
2023/11/22 02:53:53;;;;;;;0.60;0.50;;;;;;;6.46;56.86;91980.81;4956761;29;20042;-78
2023/11/22 02:56:19;;;;;;;0.50;0.50;;;;;;;6.53;56.28;91980.50;4954988;29;20077;-77
2023/11/22 02:58:45;;;;;;;0.40;0.40;;;;;;;6.51;55.69;91993.00;4956075;29;20059;-79
2023/11/22 03:01:11;;;;;;;0.60;0.60;;;;;;;6.47;56.34;91984.94;4939504;29;20046;-79
2023/11/22 03:03:37;;;;;;;0.60;0.60;;;;;;;6.65;54.86;91982.72;4956716;29;20059;-79
2023/11/22 03:06:04;;;;;;;0.45;0.45;;;;;;;6.62;54.85;91993.66;4938860;29;20063;-79
2023/11/22 03:08:30;;;;;;;0.65;0.65;;;;;;;6.57;55.58;91985.91;4957715;29;20397;-79
2023/11/22 03:10:56;;;;;;;0.50;0.50;;;;;;;6.50;55.63;91991.44;4958212;29;20058;-78
2023/11/22 03:13:21;;;;;;;0.60;0.60;;;;;;;6.46;55.63;91987.81;4961545;28;20039;-78
2023/11/22 03:15:48;;;;;;;0.40;0.40;;;;;;;6.43;55.67;91986.53;4947024;29;20458;-78
2023/11/22 03:18:16;;;;;;;0.40;0.40;;;;;;;6.46;55.49;91986.00;4964797;29;20027;-79
2023/11/22 03:20:43;;;;;;;0.50;0.50;;;;;;;6.44;55.49;91982.91;4947296;29;20082;-78
2023/11/22 03:23:10;;;;;;;0.60;0.60;;;;;;;6.38;56.26;91968.38;4965149;28;20450;-80
2023/11/22 03:25:36;;;;;;;0.50;0.50;;;;;;;6.82;52.79;91975.28;4964992;28;20039;-77
2023/11/22 03:28:02;;;;;;;0.68;0.68;;;;;;;6.87;52.80;91977.84;4947833;28;20034;-79
2023/11/22 03:30:28;;;;;;;0.60;0.60;;;;;;;6.86;52.66;91971.06;4964004;28;20051;-77
2023/11/22 03:32:55;;;;;;;0.57;0.57;;;;;;;6.88;53.71;91971.56;4947835;29;20119;-78
2023/11/22 03:35:21;;;;;;;0.60;0.60;;;;;;;6.88;52.57;91981.22;4964496;29;20062;-79
2023/11/22 03:37:47;;;;;;;0.50;0.50;;;;;;;6.88;52.62;91971.56;4946648;28;20066;-79
2023/11/22 03:40:13;;;;;;;0.57;0.57;;;;;;;6.95;50.67;91967.88;4964779;29;20507;-79
2023/11/22 03:42:40;;;;;;;0.55;0.50;;;;;;;6.95;50.22;91957.47;4965587;28;20023;-79
2023/11/22 03:45:06;;;;;;;0.50;0.50;;;;;;;7.00;50.92;91953.00;4947982;29;20101;-79
2023/11/22 03:47:37;;;;;;;0.68;0.65;;;;;;;7.14;50.27;91954.91;4964757;28;20046;-79
2023/11/22 03:50:05;;;;;;;0.50;0.50;;;;;;;7.10;50.64;91967.72;4963845;29;20046;-79
2023/11/22 03:52:31;;;;;;;0.65;0.65;;;;;;;7.19;48.64;91968.66;4963548;29;20083;-79
2023/11/22 03:54:58;;;;;;;0.52;0.52;;;;;;;7.42;47.77;91964.50;4963510;29;20070;-78
2023/11/22 03:57:23;;;;;;;0.40;0.40;;;;;;;7.39;47.20;91964.28;4963166;28;20031;-78
2023/11/22 03:59:49;;;;;;;0.52;0.52;;;;;;;7.40;48.22;91971.03;4962318;28;20463;-78
2023/11/22 04:02:14;;;;;;;0.60;0.60;;;;;;;7.59;47.55;91968.44;4963785;29;20094;-78
2023/11/22 04:04:41;;;;;;;0.47;0.47;;;;;;;7.67;46.71;91973.81;4947025;28;20098;-78
2023/11/22 04:07:07;;;;;;;0.43;0.43;;;;;;;7.60;46.49;91983.03;4963681;28;20046;-78
2023/11/22 04:09:33;;;;;;;0.70;0.70;;;;;;;7.61;46.80;91989.78;4946290;29;20051;-80
2023/11/22 04:11:59;;;;;;;0.60;0.60;;;;;;;7.59;46.75;91976.25;4945712;29;20023;-78
2023/11/22 04:14:27;;;;;;;0.60;0.60;;;;;;;7.64;44.33;91971.78;4962809;29;20039;-79
2023/11/22 04:16:53;;;;;;;0.57;0.57;;;;;;;7.72;45.10;91973.78;4962928;28;20045;-79
2023/11/22 04:19:18;;;;;;;0.80;0.80;;;;;;;7.74;44.80;91967.50;4945783;29;20138;-78
2023/11/22 04:21:44;;;;;;;0.85;0.60;;;;;;;7.81;43.63;91994.75;4963357;29;20055;-78
2023/11/22 04:24:12;;;;;;;0.60;0.57;;;;;;;7.88;42.08;91973.53;4961683;28;20484;-78
2023/11/22 04:26:37;;;;;;;0.50;0.50;;;;;;;7.86;43.50;91986.09;4960164;29;20039;-78
2023/11/22 04:29:04;;;;;;;0.50;0.50;;;;;;;8.08;42.07;91977.72;4943397;29;20028;-78
2023/11/22 04:31:30;;;;;;;0.60;0.60;;;;;;;7.87;43.02;91985.03;4959508;29;20082;-79
2023/11/22 04:34:00;;;;;;;0.40;0.40;;;;;;;7.92;41.60;91987.56;4960510;29;20519;-79
2023/11/22 04:36:26;;;;;;;0.40;0.40;;;;;;;7.80;42.29;91992.44;4949000;29;20051;-79
2023/11/22 04:38:51;;;;;;;0.50;0.50;;;;;;;7.75;42.45;91995.13;4940457;29;20040;-77
2023/11/22 04:41:18;;;;;;;0.57;0.57;;;;;;;7.74;41.47;91978.69;4941026;29;20393;-79
2023/11/22 04:43:44;;;;;;;0.50;0.50;;;;;;;8.11;39.22;91998.78;4940037;29;20032;-79
2023/11/22 04:46:10;;;;;;;0.50;0.50;;;;;;;8.02;40.18;91984.06;4939077;29;20044;-78
2023/11/22 04:48:36;;;;;;;0.50;0.50;;;;;;;7.95;40.30;91989.63;4940123;29;20102;-78
2023/11/22 04:51:02;;;;;;;0.40;0.40;;;;;;;8.05;39.94;91996.53;4939907;29;20643;-79
2023/11/22 04:53:28;;;;;;;0.40;0.40;;;;;;;8.20;38.46;91998.16;4940784;29;20145;-77
2023/11/22 04:55:54;;;;;;;0.40;0.40;;;;;;;8.28;38.47;91980.03;4939593;29;20044;-78
2023/11/22 04:58:20;;;;;;;0.47;0.47;;;;;;;8.16;39.25;92005.00;4939225;29;20047;-78
2023/11/22 05:00:45;;;;;;;0.45;0.45;;;;;;;8.13;38.84;92001.88;4944627;29;20042;-79
2023/11/22 05:03:11;;;;;;;0.50;0.50;;;;;;;8.01;38.30;92006.72;4958094;29;20086;-79
2023/11/22 05:05:37;;;;;;;0.50;0.50;;;;;;;8.04;39.13;92011.41;4958770;29;20054;-79
2023/11/22 05:08:02;;;;;;;0.50;0.50;;;;;;;8.09;38.65;92003.50;4940604;29;20039;-80
2023/11/22 05:10:28;;;;;;;0.50;0.50;;;;;;;7.97;39.43;92002.38;4958790;29;20050;-78
2023/11/22 05:12:55;;;;;;;0.50;0.50;;;;;;;7.96;39.13;92029.50;4958310;29;20031;-79
2023/11/22 05:15:21;;;;;;;0.70;0.70;;;;;;;8.03;38.39;92019.50;4958739;29;20514;-79
2023/11/22 05:17:46;;;;;;;0.60;0.60;;;;;;;8.13;37.36;92017.53;4958653;29;20043;-79
2023/11/22 05:20:12;;;;;;;0.60;0.60;;;;;;;8.00;38.19;92018.22;4957920;29;20035;-78
2023/11/22 05:22:37;;;;;;;0.60;0.60;;;;;;;8.00;38.19;92023.44;4958514;29;20038;-78
2023/11/22 05:25:03;;;;;;;0.47;0.47;;;;;;;8.19;36.90;92017.44;4958448;29;20155;-78
2023/11/22 05:27:30;;;;;;;0.40;0.40;;;;;;;8.10;38.04;92031.09;4957323;28;20046;-78
2023/11/22 05:29:55;;;;;;;0.50;0.50;;;;;;;7.96;38.14;92025.06;4957281;29;20134;-79
2023/11/22 05:32:21;;;;;;;0.50;0.50;;;;;;;7.98;38.02;92033.38;4941790;29;20074;-78
2023/11/22 05:34:47;;;;;;;0.50;0.50;;;;;;;7.99;37.69;92028.94;4957971;29;20043;-78
2023/11/22 05:37:13;;;;;;;0.50;0.50;;;;;;;7.96;38.05;92035.47;4957015;28;20061;-78
2023/11/22 05:39:38;;;;;;;0.50;0.50;;;;;;;7.93;37.95;92041.25;4956291;29;20070;-78
2023/11/22 05:42:07;;;;;;;0.40;0.40;;;;;;;8.29;35.92;92036.34;4956251;29;20039;-81
2023/11/22 05:44:32;;;;;;;0.50;0.50;;;;;;;8.09;37.56;92045.22;4933437;29;20461;-79
2023/11/22 05:46:58;;;;;;;0.40;0.40;;;;;;;7.98;37.70;92043.78;4944546;28;20305;-80
2023/11/22 05:49:23;;;;;;;0.60;0.60;;;;;;;7.97;37.26;92050.06;4955484;29;20042;-79
2023/11/22 05:51:49;;;;;;;0.50;0.50;;;;;;;7.90;37.71;92057.44;4956297;29;20384;-81
2023/11/22 05:54:16;;;;;;;0.50;0.50;;;;;;;7.86;37.74;92056.47;4956558;29;20076;-81
2023/11/22 05:56:42;;;;;;;1.58;0.60;;;;;;;7.93;36.88;92062.88;4956666;28;20086;-80
2023/11/22 05:59:08;;;;;;;0.50;0.50;;;;;;;7.89;36.75;92064.50;4939009;29;20041;-80
2023/11/22 06:01:34;;;;;;;0.52;0.52;;;;;;;7.95;37.31;92072.25;4955280;29;20438;-81
2023/11/22 06:03:59;;;;;;;0.45;0.45;;;;;;;8.06;36.49;92081.47;4939258;29;20070;-80
2023/11/22 06:06:25;;;;;;;0.60;0.60;;;;;;;7.92;38.13;92082.19;4938843;29;20371;-80
2023/11/22 06:08:50;;;;;;;0.52;0.52;;;;;;;7.88;37.56;92085.59;4939492;29;20063;-79
2023/11/22 06:11:16;;;;;;;0.50;0.50;;;;;;;7.76;37.99;92103.47;4956146;29;20042;-79
2023/11/22 06:13:48;;;;;;;0.40;0.40;;;;;;;7.70;38.18;92095.72;4941340;29;20578;-80
2023/11/22 06:16:14;;;;;;;0.40;0.40;;;;;;;7.68;37.87;92100.44;4959035;29;20067;-79
2023/11/22 06:18:44;;;;;;;0.50;0.50;;;;;;;7.79;37.27;92093.28;4940189;29;20118;-79
2023/11/22 06:21:10;;;;;;;0.50;0.50;;;;;;;7.98;36.33;92103.75;4957444;29;20039;-79
2023/11/22 06:23:36;;;;;;;0.40;0.40;;;;;;;7.97;37.16;92115.25;4954811;29;20058;-79
2023/11/22 06:26:02;;;;;;;0.57;0.57;;;;;;;7.98;36.30;92116.78;4939897;29;20039;-79
2023/11/22 06:28:28;;;;;;;0.43;0.43;;;;;;;7.93;36.90;92109.78;4925312;29;20027;-79
2023/11/22 06:30:54;;;;;;;0.40;0.40;;;;;;;7.87;37.36;92125.75;4958392;29;20063;-80
2023/11/22 06:33:20;;;;;;;0.60;0.60;;;;;;;7.79;37.50;92124.56;4958988;29;20139;-79
2023/11/22 06:35:45;;;;;;;0.50;0.50;;;;;;;7.84;37.43;92115.91;4940529;29;20050;-79
2023/11/22 06:38:11;;;;;;;0.50;0.50;;;;;;;7.96;36.34;92118.88;4956702;29;20028;-79
2023/11/22 06:40:37;;;;;;;0.68;0.68;;;;;;;7.92;37.17;92115.28;4939271;29;20496;-80
2023/11/22 06:43:04;;;;;;;0.40;0.40;;;;;;;7.94;36.43;92121.00;4939829;29;20389;-79
2023/11/22 06:45:31;;;;;;;0.50;0.50;;;;;;;7.78;37.62;92122.22;4956610;29;20035;-79
2023/11/22 06:47:57;;;;;;;0.40;0.40;;;;;;;7.74;37.97;92116.78;4956331;28;20031;-79
2023/11/22 06:50:22;;;;;;;0.50;0.50;;;;;;;7.91;35.92;92127.53;4939323;29;20035;-79
2023/11/22 06:52:49;;;;;;;0.50;0.50;;;;;;;7.96;36.26;92115.50;4939446;29;20114;-79
2023/11/22 06:55:15;;;;;;;0.50;0.50;;;;;;;8.47;36.51;92123.50;4939808;29;20047;-78
2023/11/22 06:57:41;;;;;;;0.60;0.60;;;;;;;9.61;33.72;92122.56;4956258;29;20042;-78
2023/11/22 07:00:09;;;;;;;0.75;0.65;;;;;;;10.49;33.79;92132.94;4956529;29;20044;-79
2023/11/22 07:02:35;;;;;;;0.70;0.70;;;;;;;11.22;31.33;92136.31;4956182;29;20518;-78
2023/11/22 07:05:08;;;;;;;0.52;0.52;;;;;;;12.13;31.09;92140.34;4957789;29;20134;-79
2023/11/22 07:07:38;;;;;;;0.70;0.70;;;;;;;12.80;28.72;92149.78;4939062;29;20043;-77
2023/11/22 07:10:05;;;;;;;0.75;0.75;;;;;;;13.57;28.82;92144.06;4955836;29;20090;-79
2023/11/22 07:12:37;;;;;;;0.85;0.57;;;;;;;13.60;28.02;92146.06;4938214;29;20035;-77
2023/11/22 07:15:05;;;;;;;0.70;0.70;;;;;;;14.21;29.76;92167.75;4954877;29;20039;-78
2023/11/22 07:17:33;;;;;;;0.50;0.50;;;;;;;15.06;28.64;92164.19;4923991;29;20039;-80
2023/11/22 07:20:09;;;;;;;0.60;0.60;;;;;;;15.89;27.55;92170.50;4959513;29;20051;-80
2023/11/22 07:22:35;;;;;;;0.55;0.50;;;;;;;16.78;27.00;92175.22;4958894;29;20126;-80
2023/11/22 07:25:03;;;;;;;0.50;0.50;;;;;;;17.60;26.06;92176.06;4958187;29;20024;-81
2023/11/22 07:27:29;;;;;;;0.40;0.40;;;;;;;17.46;23.18;92177.22;4959463;29;20063;-82
2023/11/22 07:29:54;;;;;;;0.40;0.40;;;;;;;17.37;23.86;92178.47;4940394;29;20048;-80
2023/11/22 07:32:20;;;;;;;0.50;0.50;;;;;;;17.47;24.90;92188.56;4941851;29;20047;-81
2023/11/22 07:34:46;;;;;;;0.50;0.50;;;;;;;18.14;24.42;92188.88;4941228;29;20520;-81
2023/11/22 07:37:16;;;;;;;0.40;0.40;;;;;;;18.57;22.46;92205.06;4959217;29;20133;-82
2023/11/22 07:39:43;;;;;;;0.57;0.57;;;;;;;18.51;23.88;92213.28;4959584;29;20497;-81
2023/11/22 07:42:09;;;;;;;0.45;0.40;;;;;;;19.10;22.58;92208.22;4959133;29;20187;-80
2023/11/22 07:44:42;;;;;;;0.40;0.40;;;;;;;19.71;21.21;92202.31;4959380;29;20507;-81
2023/11/22 07:47:08;;;;;;;1.85;0.55;;;;;;;20.09;22.55;92210.63;4958462;29;20043;-80
2023/11/22 07:50:08;;;;;;;0.55;0.47;;;;;;;20.89;21.27;92208.94;4960416;29;20025;-79
2023/11/22 07:52:33;;;;;;;0.55;0.55;;;;;;;21.40;21.40;92215.78;4927499;29;20035;-79
2023/11/22 07:54:59;;;;;;;0.50;0.50;;;;;;;22.31;19.51;92205.84;4945229;29;20041;-82
2023/11/22 07:57:25;;;;;;;0.68;0.63;;;;;;;20.81;19.79;92212.63;4946397;29;20073;-81
2023/11/22 07:59:55;;;;;;;0.60;0.60;;;;;;;20.75;20.71;92222.78;4927671;29;20099;-80
2023/11/22 08:02:21;;;;;;;0.50;0.50;;;;;;;22.19;19.85;92222.84;4947914;29;20345;-80
2023/11/22 08:04:48;;;;;;;1.60;0.60;;;;;;;19.68;20.61;92212.81;4967092;29;20031;-79
2023/11/22 08:07:14;;;;;;;0.60;0.60;;;;;;;20.52;20.50;92216.69;4935943;29;20423;-79
2023/11/22 08:09:41;;;;;;;0.50;0.50;;;;;;;20.67;21.28;92223.03;4967107;29;20065;-81
2023/11/22 08:12:07;;;;;;;0.80;0.43;;;;;;;21.47;19.76;92215.13;4934786;29;20047;-79
2023/11/22 08:14:33;;;;;;;0.50;0.50;;;;;;;19.89;21.13;92223.91;4935703;29;20107;-80
2023/11/22 08:16:59;;;;;;;0.75;0.50;;;;;;;20.61;20.39;92235.09;4967512;29;20460;-78
2023/11/22 08:19:25;;;;;;;0.40;0.40;;;;;;;21.18;21.01;92233.34;4949916;29;20091;-79
2023/11/22 08:21:50;;;;;;;0.70;0.70;;;;;;;20.99;19.74;92234.97;4967694;29;20098;-80
2023/11/22 08:24:16;;;;;;;0.50;0.50;;;;;;;20.72;20.54;92250.13;4951021;29;20034;-80
2023/11/22 08:26:42;;;;;;;0.50;0.50;;;;;;;22.11;20.01;92247.91;4965551;29;20120;-79
2023/11/22 08:29:08;;;;;;;0.57;0.57;;;;;;;21.50;19.22;92259.66;4966415;29;20031;-80
2023/11/22 08:31:36;;;;;;;0.50;0.50;;;;;;;20.87;21.57;92255.66;4967453;29;20039;-79
2023/11/22 08:34:07;;;;;;;0.50;0.50;;;;;;;21.12;19.58;92266.69;4966570;29;20051;-79
2023/11/22 08:36:35;;;;;;;0.40;0.40;;;;;;;18.88;22.18;92267.94;4948925;29;20051;-79
2023/11/22 08:39:03;;;;;;;0.30;0.30;;;;;;;18.69;22.37;92265.97;4947541;29;20419;-80
2023/11/22 08:41:30;;;;;;;0.20;0.20;;;;;;;18.83;23.37;92260.25;4948427;29;20039;-80
2023/11/22 08:43:57;;;;;;;0.45;0.45;;;;;;;17.23;23.92;92287.28;4964612;29;20073;-80
2023/11/22 08:46:23;;;;;;;0.65;0.65;;;;;;;15.69;26.22;92282.88;4964742;29;20043;-81
2023/11/22 08:48:56;;;;;;;0.30;0.30;;;;;;;16.04;25.28;92280.00;4946332;29;20059;-80
2023/11/22 08:51:22;;;;;;;0.40;0.40;;;;;;;15.09;26.24;92278.78;4964220;29;20043;-80
2023/11/22 08:53:47;;;;;;;0.28;0.28;;;;;;;14.04;27.29;92300.16;4963755;29;20053;-80
2023/11/22 08:56:13;;;;;;;0.50;0.50;;;;;;;14.34;26.93;92282.63;4929720;29;20092;-80
2023/11/22 08:58:39;;;;;;;0.90;0.50;;;;;;;14.73;27.56;92291.34;4962776;29;20031;-80
2023/11/22 09:01:06;;;;;;;0.70;0.70;;;;;;;14.02;27.79;92285.75;4946050;29;20475;-80
2023/11/22 09:03:33;;;;;;;0.68;0.50;;;;;;;14.02;28.26;92306.81;4961798;29;20046;-79
2023/11/22 09:06:02;;;;;;;0.60;0.60;;;;;;;13.85;28.15;92308.38;4949918;29;20031;-80
2023/11/22 09:08:29;;;;;;;0.50;0.50;;;;;;;13.54;28.19;92319.03;4936800;29;20071;-80
2023/11/22 09:10:55;;;;;;;0.52;0.50;;;;;;;13.66;28.76;92302.63;4964080;28;20492;-79
2023/11/22 09:13:22;;;;;;;0.50;0.50;;;;;;;13.47;28.78;92302.94;4947087;29;20110;-80
2023/11/22 09:15:47;;;;;;;0.50;0.50;;;;;;;13.09;29.58;92321.84;4964536;29;20059;-80
2023/11/22 09:18:13;;;;;;;0.40;0.40;;;;;;;13.32;29.16;92340.94;4962655;29;20395;-80
2023/11/22 09:20:39;;;;;;;0.50;0.50;;;;;;;13.31;30.08;92331.53;4945504;29;20093;-81
2023/11/22 09:23:05;;;;;;;0.68;0.68;;;;;;;13.41;29.09;92328.59;4963217;29;20031;-80
2023/11/22 09:25:33;;;;;;;0.50;0.50;;;;;;;13.11;28.07;92338.09;4945867;29;20054;-80
2023/11/22 09:27:59;;;;;;;0.50;0.50;;;;;;;13.64;29.33;92323.22;4944881;29;20043;-81
2023/11/22 09:30:38;;;;;;;0.50;0.50;;;;;;;13.79;29.85;92340.41;4960995;29;20122;-80
2023/11/22 09:33:14;;;;;;;0.50;0.50;;;;;;;13.72;29.07;92356.66;4963152;29;20039;-80
2023/11/22 09:35:40;;;;;;;0.43;0.43;;;;;;;13.97;27.67;92346.44;4960623;29;20047;-80
2023/11/22 09:38:15;;;;;;;0.40;0.40;;;;;;;14.19;27.41;92343.66;4959512;29;20134;-79
2023/11/22 09:40:42;;;;;;;0.50;0.50;;;;;;;14.44;27.93;92365.00;4926693;29;20031;-80
2023/11/22 09:43:08;;;;;;;0.50;0.50;;;;;;;14.53;27.64;92373.66;4961172;29;20031;-79
2023/11/22 09:45:34;;;;;;;0.35;0.35;;;;;;;14.92;28.11;92369.25;4929477;29;20050;-79
2023/11/22 09:48:02;;;;;;;0.30;0.30;;;;;;;14.80;27.19;92351.47;4961681;28;20027;-80
2023/11/22 09:50:40;;;;;;;0.40;0.40;;;;;;;14.38;26.42;92370.41;4964770;29;20086;-80
2023/11/22 09:53:40;;;;;;;0.50;0.50;;;;;;;14.79;27.76;92378.88;4961197;29;20043;-78
2023/11/22 09:56:07;;;;;;;0.60;0.60;;;;;;;14.81;26.74;92389.13;4948028;29;20047;-79
2023/11/22 09:58:36;;;;;;;0.38;0.38;;;;;;;14.78;26.01;92393.94;4960993;28;20099;-79
2023/11/22 10:01:03;;;;;;;0.40;0.40;;;;;;;14.98;26.76;92386.44;4959680;29;20051;-79
2023/11/22 10:03:29;;;;;;;0.40;0.40;;;;;;;15.19;26.75;92400.47;4943285;29;20027;-80
2023/11/22 10:05:59;;;;;;;0.40;0.40;;;;;;;15.20;26.80;92388.84;4960691;29;20043;-78
2023/11/22 10:08:29;;;;;;;0.50;0.50;;;;;;;15.46;27.15;92393.22;4943601;29;20043;-78
2023/11/22 10:10:55;;;;;;;0.35;0.35;;;;;;;15.50;26.71;92390.72;4943082;29;20050;-79
2023/11/22 10:13:22;;;;;;;0.57;0.50;;;;;;;15.33;26.55;92383.66;4942092;29;20039;-78
2023/11/22 10:15:49;;;;;;;0.43;0.43;;;;;;;15.26;26.76;92378.88;4960141;29;20035;-80
2023/11/22 10:18:17;;;;;;;0.50;0.50;;;;;;;14.96;26.76;92372.81;4961076;28;20031;-78
2023/11/22 10:20:46;;;;;;;0.40;0.40;;;;;;;15.09;26.23;92377.09;4960382;29;20523;-79
2023/11/22 10:23:19;;;;;;;0.50;0.50;;;;;;;15.15;27.22;92372.41;4942428;29;20568;-78
2023/11/22 10:25:52;;;;;;;0.47;0.47;;;;;;;14.97;27.53;92367.22;4943690;29;20039;-80
2023/11/22 10:28:23;;;;;;;0.60;0.60;;;;;;;15.29;28.07;92383.53;4960338;28;20050;-80
2023/11/22 10:30:51;;;;;;;0.50;0.50;;;;;;;15.10;26.05;92368.09;4941908;29;20127;-79
2023/11/22 10:33:17;;;;;;;0.40;0.40;;;;;;;14.83;25.88;92361.38;4941358;29;20291;-81
2023/11/22 10:35:57;;;;;;;0.40;0.40;;;;;;;15.25;26.98;92372.06;4940906;29;20023;-80
2023/11/22 10:38:22;;;;;;;0.50;0.50;;;;;;;15.60;27.22;92388.50;4942964;29;20043;-81
2023/11/22 10:40:54;;;;;;;0.50;0.50;;;;;;;15.58;25.58;92385.41;4946996;29;20067;-80
2023/11/22 10:43:26;;;;;;;0.60;0.60;;;;;;;15.43;25.41;92380.69;4945790;29;20035;-81
2023/11/22 10:45:56;;;;;;;0.65;0.60;;;;;;;15.22;25.01;92396.44;4943280;29;20047;-80
2023/11/22 10:48:22;;;;;;;0.43;0.43;;;;;;;15.34;24.55;92382.59;4941866;29;20036;-78
2023/11/22 10:50:48;;;;;;;0.32;0.32;;;;;;;15.58;26.04;92389.88;4939922;29;20384;-79
2023/11/22 10:53:20;;;;;;;0.57;0.57;;;;;;;15.56;26.01;92407.94;4940017;29;20059;-79
2023/11/22 10:55:48;;;;;;;0.50;0.50;;;;;;;15.83;25.37;92417.28;4941145;29;20039;-81
2023/11/22 10:58:15;;;;;;;0.50;0.50;;;;;;;15.92;25.05;92414.56;4938314;29;20091;-81
2023/11/22 11:00:43;;;;;;;0.38;0.38;;;;;;;15.78;26.04;92420.88;4939336;29;20074;-81
2023/11/22 11:03:14;;;;;;;0.30;0.30;;;;;;;15.70;25.52;92415.63;4939688;29;20380;-80
2023/11/22 11:05:57;;;;;;;0.40;0.30;;;;;;;15.89;25.90;92418.63;4920969;29;20040;-80
2023/11/22 11:08:25;;;;;;;;;;;;;;;15.68;25.03;92413.28;4941811;29;20051;-79
2023/11/22 11:10:52;;;;;;;0.50;0.50;;;;;;;14.35;26.23;92421.06;4942095;29;19977;-79
2023/11/22 11:13:18;;;;;;;0.75;0.60;;;;;;;14.85;26.68;92426.94;4938223;29;20063;-79
2023/11/22 11:15:45;;;;;;;2.45;0.50;;;;;;;15.01;24.98;92435.88;4937337;29;20123;-80
2023/11/22 11:18:17;;;;;;;0.35;0.35;;;;;;;14.95;24.74;92437.13;4936527;29;20036;-80
2023/11/22 11:20:54;;;;;;;0.30;0.30;;;;;;;15.20;25.97;92430.25;4936469;29;20073;-80
2023/11/22 11:23:27;;;;;;;0.38;0.38;;;;;;;15.29;25.05;92438.13;4939270;29;20058;-80
2023/11/22 11:25:56;;;;;;;0.52;0.52;;;;;;;15.62;25.72;92425.88;4939957;29;20047;-79
2023/11/22 11:28:26;;;;;;;0.55;0.55;;;;;;;15.94;24.73;92439.56;4939758;29;20024;-79
2023/11/22 11:30:53;;;;;;;0.47;0.47;;;;;;;15.05;25.85;92428.13;4947253;29;20423;-80
2023/11/22 11:33:19;;;;;;;0.50;0.50;;;;;;;15.64;25.56;92449.31;4958760;28;20053;-80
2023/11/22 11:35:49;;;;;;;0.60;0.60;;;;;;;15.44;25.85;92431.56;4962354;29;20035;-80
2023/11/22 11:38:36;;;;;;;0.40;0.40;;;;;;;15.90;25.04;92436.03;4963668;28;20034;-80